sensor_id;sensor_type;location;lat;lon;timestamp;temperature;humidity
16485;DHT22;8353;47.856;12.344;2024-02-21T00:01:54;7.30;99.90
16485;DHT22;8353;47.856;12.344;2024-02-21T00:04:25;7.40;99.90
16485;DHT22;8353;47.856;12.344;2024-02-21T00:06:57;7.30;99.90
16485;DHT22;8353;47.856;12.344;2024-02-21T00:09:27;7.20;99.90
16485;DHT22;8353;47.856;12.344;2024-02-21T00:11:58;7.20;99.90
16485;DHT22;8353;47.856;12.344;2024-02-21T00:14:29;7.20;99.90
16485;DHT22;8353;47.856;12.344;2024-02-21T00:17:00;7.20;99.90
16485;DHT22;8353;47.856;12.344;2024-02-21T00:19:30;7.20;99.90
16485;DHT22;8353;47.856;12.344;2024-02-21T00:22:03;7.20;99.90
16485;DHT22;8353;47.856;12.344;2024-02-21T00:24:34;7.10;99.90
16485;DHT22;8353;47.856;12.344;2024-02-21T00:27:04;7.10;99.90
16485;DHT22;8353;47.856;12.344;2024-02-21T00:29:35;7.20;99.90
16485;DHT22;8353;47.856;12.344;2024-02-21T00:32:06;7.20;99.90
16485;DHT22;8353;47.856;12.344;2024-02-21T00:34:36;7.30;99.90
16485;DHT22;8353;47.856;12.344;2024-02-21T00:37:08;7.30;99.90
16485;DHT22;8353;47.856;12.344;2024-02-21T00:39:39;7.30;99.90
16485;DHT22;8353;47.856;12.344;2024-02-21T00:42:08;7.40;99.90
16485;DHT22;8353;47.856;12.344;2024-02-21T00:44:39;7.30;99.90
16485;DHT22;8353;47.856;12.344;2024-02-21T00:47:10;7.30;99.90
16485;DHT22;8353;47.856;12.344;2024-02-21T00:49:40;7.40;99.90
16485;DHT22;8353;47.856;12.344;2024-02-21T00:52:12;7.40;99.90
16485;DHT22;8353;47.856;12.344;2024-02-21T00:54:43;7.40;99.90
16485;DHT22;8353;47.856;12.344;2024-02-21T00:57:13;7.30;99.90
16485;DHT22;8353;47.856;12.344;2024-02-21T00:59:44;7.30;99.90
16485;DHT22;8353;47.856;12.344;2024-02-21T01:02:14;7.30;99.90
16485;DHT22;8353;47.856;12.344;2024-02-21T01:04:44;7.30;99.90
16485;DHT22;8353;47.856;12.344;2024-02-21T01:07:16;7.40;99.90
16485;DHT22;8353;47.856;12.344;2024-02-21T01:09:46;7.40;99.90
16485;DHT22;8353;47.856;12.344;2024-02-21T01:12:16;7.30;99.90
16485;DHT22;8353;47.856;12.344;2024-02-21T01:14:46;7.30;99.90
16485;DHT22;8353;47.856;12.344;2024-02-21T01:17:16;7.40;99.90
16485;DHT22;8353;47.856;12.344;2024-02-21T01:19:47;7.30;99.90
16485;DHT22;8353;47.856;12.344;2024-02-21T01:22:18;7.40;99.90
16485;DHT22;8353;47.856;12.344;2024-02-21T01:24:49;7.40;99.90
16485;DHT22;8353;47.856;12.344;2024-02-21T01:27:19;7.40;99.90
16485;DHT22;8353;47.856;12.344;2024-02-21T01:29:49;7.40;99.90
16485;DHT22;8353;47.856;12.344;2024-02-21T01:32:19;7.40;99.90
16485;DHT22;8353;47.856;12.344;2024-02-21T01:34:53;7.40;99.90
16485;DHT22;8353;47.856;12.344;2024-02-21T01:37:25;7.50;99.90
16485;DHT22;8353;47.856;12.344;2024-02-21T01:39:55;7.50;99.90
16485;DHT22;8353;47.856;12.344;2024-02-21T01:42:26;7.50;99.90
16485;DHT22;8353;47.856;12.344;2024-02-21T01:44:56;7.50;99.90
16485;DHT22;8353;47.856;12.344;2024-02-21T01:47:26;7.60;99.90
16485;DHT22;8353;47.856;12.344;2024-02-21T01:49:57;7.50;99.90
16485;DHT22;8353;47.856;12.344;2024-02-21T01:52:29;7.60;99.90
16485;DHT22;8353;47.856;12.344;2024-02-21T01:55:00;7.50;99.90
16485;DHT22;8353;47.856;12.344;2024-02-21T01:57:30;7.60;99.90
16485;DHT22;8353;47.856;12.344;2024-02-21T02:00:01;7.60;99.90
16485;DHT22;8353;47.856;12.344;2024-02-21T02:02:31;7.60;99.90
16485;DHT22;8353;47.856;12.344;2024-02-21T02:05:02;7.60;99.90
16485;DHT22;8353;47.856;12.344;2024-02-21T02:07:34;7.60;99.90
16485;DHT22;8353;47.856;12.344;2024-02-21T02:10:08;7.60;99.90
16485;DHT22;8353;47.856;12.344;2024-02-21T02:12:39;7.70;99.90
16485;DHT22;8353;47.856;12.344;2024-02-21T02:15:09;7.60;99.90
16485;DHT22;8353;47.856;12.344;2024-02-21T02:17:39;7.60;99.90
16485;DHT22;8353;47.856;12.344;2024-02-21T02:20:11;7.60;99.90
16485;DHT22;8353;47.856;12.344;2024-02-21T02:22:43;7.70;99.90
16485;DHT22;8353;47.856;12.344;2024-02-21T02:25:17;7.60;99.90
16485;DHT22;8353;47.856;12.344;2024-02-21T02:27:47;7.70;99.90
16485;DHT22;8353;47.856;12.344;2024-02-21T02:30:17;7.60;99.90
16485;DHT22;8353;47.856;12.344;2024-02-21T02:32:49;7.60;99.90
16485;DHT22;8353;47.856;12.344;2024-02-21T02:35:19;7.60;99.90
16485;DHT22;8353;47.856;12.344;2024-02-21T02:37:50;7.60;99.90
16485;DHT22;8353;47.856;12.344;2024-02-21T02:40:22;7.60;99.90
16485;DHT22;8353;47.856;12.344;2024-02-21T02:42:52;7.60;99.90
16485;DHT22;8353;47.856;12.344;2024-02-21T02:45:24;7.70;99.90
16485;DHT22;8353;47.856;12.344;2024-02-21T02:47:55;7.70;99.90
16485;DHT22;8353;47.856;12.344;2024-02-21T02:50:27;7.70;99.90
16485;DHT22;8353;47.856;12.344;2024-02-21T02:52:57;7.60;99.90
16485;DHT22;8353;47.856;12.344;2024-02-21T02:55:29;7.70;99.90
16485;DHT22;8353;47.856;12.344;2024-02-21T02:57:59;7.70;99.90
16485;DHT22;8353;47.856;12.344;2024-02-21T03:00:29;7.70;99.90
16485;DHT22;8353;47.856;12.344;2024-02-21T03:03:00;7.70;99.90
16485;DHT22;8353;47.856;12.344;2024-02-21T03:05:36;7.80;99.90
16485;DHT22;8353;47.856;12.344;2024-02-21T03:08:06;7.80;99.90
16485;DHT22;8353;47.856;12.344;2024-02-21T03:10:38;7.80;99.90
16485;DHT22;8353;47.856;12.344;2024-02-21T03:13:09;7.80;99.90
16485;DHT22;8353;47.856;12.344;2024-02-21T03:15:39;7.80;99.90
16485;DHT22;8353;47.856;12.344;2024-02-21T03:18:10;7.80;99.90
16485;DHT22;8353;47.856;12.344;2024-02-21T03:20:40;7.80;99.90
16485;DHT22;8353;47.856;12.344;2024-02-21T03:23:10;7.90;99.90
16485;DHT22;8353;47.856;12.344;2024-02-21T03:25:42;7.90;99.90
16485;DHT22;8353;47.856;12.344;2024-02-21T03:28:12;7.80;99.90
16485;DHT22;8353;47.856;12.344;2024-02-21T03:30:43;7.80;99.90
16485;DHT22;8353;47.856;12.344;2024-02-21T03:33:13;7.80;99.90
16485;DHT22;8353;47.856;12.344;2024-02-21T03:35:44;7.80;99.90
16485;DHT22;8353;47.856;12.344;2024-02-21T03:38:14;7.80;99.90
16485;DHT22;8353;47.856;12.344;2024-02-21T03:40:46;7.70;99.90
16485;DHT22;8353;47.856;12.344;2024-02-21T03:43:16;7.80;99.90
16485;DHT22;8353;47.856;12.344;2024-02-21T03:45:46;7.80;99.90
16485;DHT22;8353;47.856;12.344;2024-02-21T03:48:17;7.80;99.90
16485;DHT22;8353;47.856;12.344;2024-02-21T03:50:47;7.80;99.90
16485;DHT22;8353;47.856;12.344;2024-02-21T03:53:17;7.70;99.90
16485;DHT22;8353;47.856;12.344;2024-02-21T03:55:49;7.70;99.90
16485;DHT22;8353;47.856;12.344;2024-02-21T03:58:19;7.70;99.90
16485;DHT22;8353;47.856;12.344;2024-02-21T04:00:49;7.60;99.90
16485;DHT22;8353;47.856;12.344;2024-02-21T04:03:20;7.50;99.90
16485;DHT22;8353;47.856;12.344;2024-02-21T04:05:51;7.50;99.90
16485;DHT22;8353;47.856;12.344;2024-02-21T04:08:22;7.60;99.90
16485;DHT22;8353;47.856;12.344;2024-02-21T04:10:53;7.50;99.90
16485;DHT22;8353;47.856;12.344;2024-02-21T04:13:24;7.40;99.90
16485;DHT22;8353;47.856;12.344;2024-02-21T04:15:55;7.40;99.90
16485;DHT22;8353;47.856;12.344;2024-02-21T04:18:26;7.40;99.90
16485;DHT22;8353;47.856;12.344;2024-02-21T04:20:56;7.50;99.90
16485;DHT22;8353;47.856;12.344;2024-02-21T04:23:28;7.50;99.90
16485;DHT22;8353;47.856;12.344;2024-02-21T04:26:00;7.50;99.90
16485;DHT22;8353;47.856;12.344;2024-02-21T04:28:30;7.50;99.90
16485;DHT22;8353;47.856;12.344;2024-02-21T04:31:01;7.50;99.90
16485;DHT22;8353;47.856;12.344;2024-02-21T04:33:31;7.50;99.90
16485;DHT22;8353;47.856;12.344;2024-02-21T04:36:05;7.60;99.90
16485;DHT22;8353;47.856;12.344;2024-02-21T04:38:35;7.60;99.90
16485;DHT22;8353;47.856;12.344;2024-02-21T04:41:07;7.70;99.90
16485;DHT22;8353;47.856;12.344;2024-02-21T04:43:37;7.70;99.90
16485;DHT22;8353;47.856;12.344;2024-02-21T04:46:08;7.60;99.90
16485;DHT22;8353;47.856;12.344;2024-02-21T04:48:39;7.80;99.90
16485;DHT22;8353;47.856;12.344;2024-02-21T04:51:09;7.70;99.90
16485;DHT22;8353;47.856;12.344;2024-02-21T04:53:40;7.70;99.90
16485;DHT22;8353;47.856;12.344;2024-02-21T04:56:11;7.70;99.90
16485;DHT22;8353;47.856;12.344;2024-02-21T04:58:42;7.70;99.90
16485;DHT22;8353;47.856;12.344;2024-02-21T05:01:12;7.70;99.90
16485;DHT22;8353;47.856;12.344;2024-02-21T05:03:43;7.70;99.90
16485;DHT22;8353;47.856;12.344;2024-02-21T05:06:13;7.70;99.90
16485;DHT22;8353;47.856;12.344;2024-02-21T05:08:44;7.70;99.90
16485;DHT22;8353;47.856;12.344;2024-02-21T05:11:16;7.60;99.90
16485;DHT22;8353;47.856;12.344;2024-02-21T05:13:46;7.60;99.90
16485;DHT22;8353;47.856;12.344;2024-02-21T05:16:17;7.60;99.90
16485;DHT22;8353;47.856;12.344;2024-02-21T05:18:48;7.70;99.90
16485;DHT22;8353;47.856;12.344;2024-02-21T05:21:18;7.60;99.90
16485;DHT22;8353;47.856;12.344;2024-02-21T05:23:49;7.60;99.90
16485;DHT22;8353;47.856;12.344;2024-02-21T05:26:25;7.60;99.90
16485;DHT22;8353;47.856;12.344;2024-02-21T05:28:55;7.60;99.90
16485;DHT22;8353;47.856;12.344;2024-02-21T05:31:25;7.60;99.90
16485;DHT22;8353;47.856;12.344;2024-02-21T05:33:55;7.70;99.90
16485;DHT22;8353;47.856;12.344;2024-02-21T05:36:26;7.70;99.90
16485;DHT22;8353;47.856;12.344;2024-02-21T05:38:57;7.70;99.90
16485;DHT22;8353;47.856;12.344;2024-02-21T05:41:29;7.80;99.90
16485;DHT22;8353;47.856;12.344;2024-02-21T05:44:00;7.80;99.90
16485;DHT22;8353;47.856;12.344;2024-02-21T05:46:30;7.80;99.90
16485;DHT22;8353;47.856;12.344;2024-02-21T05:49:01;7.90;99.90
16485;DHT22;8353;47.856;12.344;2024-02-21T05:51:32;7.80;99.90
16485;DHT22;8353;47.856;12.344;2024-02-21T05:54:03;7.90;99.90
16485;DHT22;8353;47.856;12.344;2024-02-21T06:04:12;7.80;99.90
16485;DHT22;8353;47.856;12.344;2024-02-21T06:06:43;7.80;99.90
16485;DHT22;8353;47.856;12.344;2024-02-21T06:09:13;7.70;99.90
16485;DHT22;8353;47.856;12.344;2024-02-21T06:11:43;7.80;99.90
16485;DHT22;8353;47.856;12.344;2024-02-21T06:14:15;7.70;99.90
16485;DHT22;8353;47.856;12.344;2024-02-21T06:16:45;7.80;99.90
16485;DHT22;8353;47.856;12.344;2024-02-21T06:19:17;7.90;99.90
16485;DHT22;8353;47.856;12.344;2024-02-21T06:21:47;7.90;99.90
16485;DHT22;8353;47.856;12.344;2024-02-21T06:24:18;7.80;99.90
16485;DHT22;8353;47.856;12.344;2024-02-21T06:26:47;7.80;99.90
16485;DHT22;8353;47.856;12.344;2024-02-21T06:29:18;7.80;99.90
16485;DHT22;8353;47.856;12.344;2024-02-21T06:31:48;7.80;99.90
16485;DHT22;8353;47.856;12.344;2024-02-21T06:34:20;7.80;99.90
16485;DHT22;8353;47.856;12.344;2024-02-21T06:36:50;7.90;99.90
16485;DHT22;8353;47.856;12.344;2024-02-21T06:39:20;7.80;99.90
16485;DHT22;8353;47.856;12.344;2024-02-21T06:41:52;7.90;99.90
16485;DHT22;8353;47.856;12.344;2024-02-21T06:44:22;7.90;99.90
16485;DHT22;8353;47.856;12.344;2024-02-21T06:46:52;7.90;99.90
16485;DHT22;8353;47.856;12.344;2024-02-21T06:49:25;8.00;99.90
16485;DHT22;8353;47.856;12.344;2024-02-21T06:51:55;8.00;99.90
16485;DHT22;8353;47.856;12.344;2024-02-21T06:54:26;8.00;99.90
16485;DHT22;8353;47.856;12.344;2024-02-21T06:56:56;8.10;99.90
16485;DHT22;8353;47.856;12.344;2024-02-21T06:59:27;8.00;99.90
16485;DHT22;8353;47.856;12.344;2024-02-21T07:01:57;8.10;99.90
16485;DHT22;8353;47.856;12.344;2024-02-21T07:04:31;8.00;99.90
16485;DHT22;8353;47.856;12.344;2024-02-21T07:07:01;8.10;99.90
16485;DHT22;8353;47.856;12.344;2024-02-21T07:09:31;8.10;99.90
16485;DHT22;8353;47.856;12.344;2024-02-21T07:12:02;8.10;99.90
16485;DHT22;8353;47.856;12.344;2024-02-21T07:14:33;8.10;99.90
16485;DHT22;8353;47.856;12.344;2024-02-21T07:17:04;8.00;99.90
16485;DHT22;8353;47.856;12.344;2024-02-21T07:19:35;8.10;99.90
16485;DHT22;8353;47.856;12.344;2024-02-21T07:22:06;8.30;99.90
16485;DHT22;8353;47.856;12.344;2024-02-21T07:24:36;8.50;99.90
16485;DHT22;8353;47.856;12.344;2024-02-21T07:27:06;8.70;99.90
16485;DHT22;8353;47.856;12.344;2024-02-21T07:29:37;8.90;99.90
16485;DHT22;8353;47.856;12.344;2024-02-21T07:32:08;8.90;99.90
16485;DHT22;8353;47.856;12.344;2024-02-21T07:34:40;9.00;99.90
16485;DHT22;8353;47.856;12.344;2024-02-21T07:37:11;9.20;99.90
16485;DHT22;8353;47.856;12.344;2024-02-21T07:39:41;9.40;99.90
16485;DHT22;8353;47.856;12.344;2024-02-21T07:42:14;9.60;99.90
16485;DHT22;8353;47.856;12.344;2024-02-21T07:44:45;9.60;99.90
16485;DHT22;8353;47.856;12.344;2024-02-21T07:47:16;9.60;99.90
16485;DHT22;8353;47.856;12.344;2024-02-21T07:49:49;9.60;99.90
16485;DHT22;8353;47.856;12.344;2024-02-21T07:52:19;9.60;99.90
16485;DHT22;8353;47.856;12.344;2024-02-21T07:54:50;9.70;99.90
16485;DHT22;8353;47.856;12.344;2024-02-21T07:57:20;9.70;99.90
16485;DHT22;8353;47.856;12.344;2024-02-21T07:59:51;9.70;99.90
16485;DHT22;8353;47.856;12.344;2024-02-21T08:02:21;9.70;99.90
16485;DHT22;8353;47.856;12.344;2024-02-21T08:04:52;9.80;99.90
16485;DHT22;8353;47.856;12.344;2024-02-21T08:07:23;9.90;99.90
16485;DHT22;8353;47.856;12.344;2024-02-21T08:09:53;10.00;99.90
16485;DHT22;8353;47.856;12.344;2024-02-21T08:12:24;9.90;99.90
16485;DHT22;8353;47.856;12.344;2024-02-21T08:14:54;9.90;99.90
16485;DHT22;8353;47.856;12.344;2024-02-21T08:17:24;10.00;99.90
16485;DHT22;8353;47.856;12.344;2024-02-21T08:19:56;10.00;99.90
16485;DHT22;8353;47.856;12.344;2024-02-21T08:22:26;10.00;99.90
16485;DHT22;8353;47.856;12.344;2024-02-21T08:24:57;10.00;99.90
16485;DHT22;8353;47.856;12.344;2024-02-21T08:27:28;10.00;99.90
16485;DHT22;8353;47.856;12.344;2024-02-21T08:29:58;10.00;99.90
16485;DHT22;8353;47.856;12.344;2024-02-21T08:32:29;10.10;99.90
16485;DHT22;8353;47.856;12.344;2024-02-21T08:35:00;10.10;99.90
16485;DHT22;8353;47.856;12.344;2024-02-21T08:37:31;10.20;99.90
16485;DHT22;8353;47.856;12.344;2024-02-21T08:40:06;10.20;99.90
16485;DHT22;8353;47.856;12.344;2024-02-21T08:42:41;10.40;99.90
16485;DHT22;8353;47.856;12.344;2024-02-21T08:45:11;10.30;99.90
16485;DHT22;8353;47.856;12.344;2024-02-21T08:48:01;10.50;99.90
16485;DHT22;8353;47.856;12.344;2024-02-21T08:50:32;10.60;99.90
16485;DHT22;8353;47.856;12.344;2024-02-21T08:53:03;10.70;99.90
16485;DHT22;8353;47.856;12.344;2024-02-21T08:55:33;10.90;99.90
16485;DHT22;8353;47.856;12.344;2024-02-21T08:58:04;11.10;99.90
16485;DHT22;8353;47.856;12.344;2024-02-21T09:00:35;11.30;99.90
16485;DHT22;8353;47.856;12.344;2024-02-21T09:03:05;11.40;99.90
16485;DHT22;8353;47.856;12.344;2024-02-21T09:05:37;11.40;99.90
16485;DHT22;8353;47.856;12.344;2024-02-21T09:08:07;11.40;99.90
16485;DHT22;8353;47.856;12.344;2024-02-21T09:10:37;11.50;99.90
16485;DHT22;8353;47.856;12.344;2024-02-21T09:13:07;11.50;99.90
16485;DHT22;8353;47.856;12.344;2024-02-21T09:15:37;11.50;99.90
16485;DHT22;8353;47.856;12.344;2024-02-21T09:18:08;11.70;99.90
16485;DHT22;8353;47.856;12.344;2024-02-21T09:20:39;12.00;99.90
16485;DHT22;8353;47.856;12.344;2024-02-21T09:23:09;12.10;99.90
16485;DHT22;8353;47.856;12.344;2024-02-21T09:25:40;12.10;99.90
16485;DHT22;8353;47.856;12.344;2024-02-21T09:28:10;12.20;99.90
16485;DHT22;8353;47.856;12.344;2024-02-21T09:30:42;12.20;99.90
16485;DHT22;8353;47.856;12.344;2024-02-21T09:33:12;12.30;99.90
16485;DHT22;8353;47.856;12.344;2024-02-21T09:35:45;12.30;99.90
16485;DHT22;8353;47.856;12.344;2024-02-21T09:38:16;12.40;99.90
16485;DHT22;8353;47.856;12.344;2024-02-21T09:40:47;12.40;99.90
16485;DHT22;8353;47.856;12.344;2024-02-21T09:43:21;12.50;99.90
16485;DHT22;8353;47.856;12.344;2024-02-21T09:45:55;12.60;99.90
16485;DHT22;8353;47.856;12.344;2024-02-21T09:48:34;12.60;99.90
16485;DHT22;8353;47.856;12.344;2024-02-21T09:51:10;12.60;99.90
16485;DHT22;8353;47.856;12.344;2024-02-21T09:53:42;12.60;99.90
16485;DHT22;8353;47.856;12.344;2024-02-21T09:56:13;12.70;99.90
16485;DHT22;8353;47.856;12.344;2024-02-21T09:58:43;12.80;99.90
16485;DHT22;8353;47.856;12.344;2024-02-21T10:01:13;12.80;99.90
16485;DHT22;8353;47.856;12.344;2024-02-21T10:03:45;12.80;99.90
16485;DHT22;8353;47.856;12.344;2024-02-21T10:06:18;12.90;99.90
16485;DHT22;8353;47.856;12.344;2024-02-21T10:08:52;12.80;99.90
16485;DHT22;8353;47.856;12.344;2024-02-21T10:11:23;12.80;99.90
16485;DHT22;8353;47.856;12.344;2024-02-21T10:14:02;12.80;99.90
16485;DHT22;8353;47.856;12.344;2024-02-21T10:16:33;12.90;99.90
16485;DHT22;8353;47.856;12.344;2024-02-21T10:19:03;12.80;99.90
16485;DHT22;8353;47.856;12.344;2024-02-21T10:21:35;12.90;99.90
16485;DHT22;8353;47.856;12.344;2024-02-21T10:24:05;13.10;99.90
16485;DHT22;8353;47.856;12.344;2024-02-21T10:26:36;13.30;99.90
16485;DHT22;8353;47.856;12.344;2024-02-21T10:29:06;13.40;99.90
16485;DHT22;8353;47.856;12.344;2024-02-21T10:31:37;13.50;99.90
16485;DHT22;8353;47.856;12.344;2024-02-21T10:34:09;13.60;99.90
16485;DHT22;8353;47.856;12.344;2024-02-21T10:36:41;13.70;99.90
16485;DHT22;8353;47.856;12.344;2024-02-21T10:39:11;13.60;99.90
16485;DHT22;8353;47.856;12.344;2024-02-21T10:41:42;13.60;99.90
16485;DHT22;8353;47.856;12.344;2024-02-21T10:44:14;13.70;99.90
16485;DHT22;8353;47.856;12.344;2024-02-21T10:46:46;13.80;99.90
16485;DHT22;8353;47.856;12.344;2024-02-21T10:49:22;13.90;99.90
16485;DHT22;8353;47.856;12.344;2024-02-21T10:52:06;14.10;99.90
16485;DHT22;8353;47.856;12.344;2024-02-21T10:54:43;14.00;99.90
16485;DHT22;8353;47.856;12.344;2024-02-21T10:57:14;14.10;99.90
16485;DHT22;8353;47.856;12.344;2024-02-21T10:59:45;14.10;99.90
16485;DHT22;8353;47.856;12.344;2024-02-21T11:02:15;14.20;99.90
16485;DHT22;8353;47.856;12.344;2024-02-21T11:04:46;14.30;99.90
16485;DHT22;8353;47.856;12.344;2024-02-21T11:07:18;14.50;99.90
16485;DHT22;8353;47.856;12.344;2024-02-21T11:09:53;14.30;99.90
16485;DHT22;8353;47.856;12.344;2024-02-21T11:12:34;14.50;99.90
16485;DHT22;8353;47.856;12.344;2024-02-21T11:15:07;14.50;99.90
16485;DHT22;8353;47.856;12.344;2024-02-21T11:17:38;14.50;99.90
16485;DHT22;8353;47.856;12.344;2024-02-21T11:20:12;14.50;99.90
16485;DHT22;8353;47.856;12.344;2024-02-21T11:22:43;14.70;99.90
16485;DHT22;8353;47.856;12.344;2024-02-21T11:25:21;14.80;99.90
16485;DHT22;8353;47.856;12.344;2024-02-21T11:27:59;14.90;99.90
16485;DHT22;8353;47.856;12.344;2024-02-21T11:30:30;14.90;99.90
16485;DHT22;8353;47.856;12.344;2024-02-21T11:33:03;15.10;99.90
16485;DHT22;8353;47.856;12.344;2024-02-21T11:35:34;15.10;99.90
16485;DHT22;8353;47.856;12.344;2024-02-21T11:38:12;15.10;99.90
16485;DHT22;8353;47.856;12.344;2024-02-21T11:40:45;15.10;99.90
16485;DHT22;8353;47.856;12.344;2024-02-21T11:43:16;15.10;99.90
16485;DHT22;8353;47.856;12.344;2024-02-21T11:45:46;15.30;99.90
16485;DHT22;8353;47.856;12.344;2024-02-21T11:48:17;15.30;99.90
16485;DHT22;8353;47.856;12.344;2024-02-21T11:50:53;15.30;99.90
16485;DHT22;8353;47.856;12.344;2024-02-21T11:53:26;15.50;99.90
16485;DHT22;8353;47.856;12.344;2024-02-21T11:55:59;15.50;99.90
16485;DHT22;8353;47.856;12.344;2024-02-21T11:58:32;15.50;99.90
16485;DHT22;8353;47.856;12.344;2024-02-21T12:01:03;15.20;99.90
16485;DHT22;8353;47.856;12.344;2024-02-21T12:03:33;15.30;99.90
16485;DHT22;8353;47.856;12.344;2024-02-21T12:06:06;15.30;99.90
16485;DHT22;8353;47.856;12.344;2024-02-21T12:08:44;15.30;99.90
16485;DHT22;8353;47.856;12.344;2024-02-21T12:11:20;15.30;99.90
16485;DHT22;8353;47.856;12.344;2024-02-21T12:13:59;15.50;99.90
16485;DHT22;8353;47.856;12.344;2024-02-21T12:16:31;15.50;99.90
16485;DHT22;8353;47.856;12.344;2024-02-21T12:19:02;15.60;99.90
16485;DHT22;8353;47.856;12.344;2024-02-21T12:21:34;15.90;99.90
16485;DHT22;8353;47.856;12.344;2024-02-21T12:24:14;15.90;99.90
16485;DHT22;8353;47.856;12.344;2024-02-21T12:26:45;15.90;99.90
16485;DHT22;8353;47.856;12.344;2024-02-21T12:29:15;16.00;99.90
16485;DHT22;8353;47.856;12.344;2024-02-21T12:31:45;16.10;99.90
16485;DHT22;8353;47.856;12.344;2024-02-21T12:34:16;16.20;99.90
16485;DHT22;8353;47.856;12.344;2024-02-21T12:36:48;16.20;99.90
16485;DHT22;8353;47.856;12.344;2024-02-21T12:39:19;16.20;99.90
16485;DHT22;8353;47.856;12.344;2024-02-21T12:41:50;16.20;99.90
16485;DHT22;8353;47.856;12.344;2024-02-21T12:44:20;16.00;99.90
16485;DHT22;8353;47.856;12.344;2024-02-21T12:46:50;15.80;99.90
16485;DHT22;8353;47.856;12.344;2024-02-21T12:49:23;15.70;99.90
16485;DHT22;8353;47.856;12.344;2024-02-21T12:51:53;15.60;99.90
16485;DHT22;8353;47.856;12.344;2024-02-21T12:54:25;15.60;99.90
16485;DHT22;8353;47.856;12.344;2024-02-21T12:56:56;15.50;99.90
16485;DHT22;8353;47.856;12.344;2024-02-21T12:59:27;15.70;99.90
16485;DHT22;8353;47.856;12.344;2024-02-21T13:01:59;15.90;99.90
16485;DHT22;8353;47.856;12.344;2024-02-21T13:04:29;16.00;99.90
16485;DHT22;8353;47.856;12.344;2024-02-21T13:07:02;16.00;99.90
16485;DHT22;8353;47.856;12.344;2024-02-21T13:09:42;16.10;99.90
16485;DHT22;8353;47.856;12.344;2024-02-21T13:12:12;16.10;99.90
16485;DHT22;8353;47.856;12.344;2024-02-21T13:14:42;16.20;99.90
16485;DHT22;8353;47.856;12.344;2024-02-21T13:17:12;16.20;99.90
16485;DHT22;8353;47.856;12.344;2024-02-21T13:19:44;16.30;99.90
16485;DHT22;8353;47.856;12.344;2024-02-21T13:22:14;16.40;99.90
16485;DHT22;8353;47.856;12.344;2024-02-21T13:24:46;16.50;99.90
16485;DHT22;8353;47.856;12.344;2024-02-21T13:27:16;16.40;99.90
16485;DHT22;8353;47.856;12.344;2024-02-21T13:29:47;16.50;99.90
16485;DHT22;8353;47.856;12.344;2024-02-21T13:32:17;16.50;99.90
16485;DHT22;8353;47.856;12.344;2024-02-21T13:34:47;16.60;99.90
16485;DHT22;8353;47.856;12.344;2024-02-21T13:37:19;16.50;99.90
16485;DHT22;8353;47.856;12.344;2024-02-21T13:39:51;16.40;99.90
16485;DHT22;8353;47.856;12.344;2024-02-21T13:42:22;16.40;99.90
16485;DHT22;8353;47.856;12.344;2024-02-21T13:44:53;16.30;99.90
16485;DHT22;8353;47.856;12.344;2024-02-21T13:47:23;16.30;99.90
16485;DHT22;8353;47.856;12.344;2024-02-21T13:49:53;16.50;99.90
16485;DHT22;8353;47.856;12.344;2024-02-21T13:52:24;16.80;99.90
16485;DHT22;8353;47.856;12.344;2024-02-21T13:54:56;16.90;99.90
16485;DHT22;8353;47.856;12.344;2024-02-21T13:57:28;17.10;99.90
16485;DHT22;8353;47.856;12.344;2024-02-21T13:59:58;17.20;99.90
16485;DHT22;8353;47.856;12.344;2024-02-21T14:02:29;17.30;99.90
16485;DHT22;8353;47.856;12.344;2024-02-21T14:04:59;17.20;99.90
16485;DHT22;8353;47.856;12.344;2024-02-21T14:07:30;17.20;99.90
16485;DHT22;8353;47.856;12.344;2024-02-21T14:10:02;17.10;99.90
16485;DHT22;8353;47.856;12.344;2024-02-21T14:12:32;16.90;99.90
16485;DHT22;8353;47.856;12.344;2024-02-21T14:15:03;16.70;99.90
16485;DHT22;8353;47.856;12.344;2024-02-21T14:17:34;16.50;99.90
16485;DHT22;8353;47.856;12.344;2024-02-21T14:20:05;16.20;99.90
16485;DHT22;8353;47.856;12.344;2024-02-21T14:22:36;16.20;99.90
16485;DHT22;8353;47.856;12.344;2024-02-21T14:25:08;16.30;99.90
16485;DHT22;8353;47.856;12.344;2024-02-21T14:27:38;16.40;99.90
16485;DHT22;8353;47.856;12.344;2024-02-21T14:30:09;16.40;99.90
16485;DHT22;8353;47.856;12.344;2024-02-21T14:32:43;16.40;99.90
16485;DHT22;8353;47.856;12.344;2024-02-21T14:35:14;16.30;99.90
16485;DHT22;8353;47.856;12.344;2024-02-21T14:37:45;16.30;99.90
16485;DHT22;8353;47.856;12.344;2024-02-21T14:40:19;16.10;99.90
16485;DHT22;8353;47.856;12.344;2024-02-21T14:42:50;15.90;99.90
16485;DHT22;8353;47.856;12.344;2024-02-21T14:45:22;15.80;99.90
16485;DHT22;8353;47.856;12.344;2024-02-21T14:47:52;15.90;99.90
16485;DHT22;8353;47.856;12.344;2024-02-21T14:50:24;16.10;99.90
16485;DHT22;8353;47.856;12.344;2024-02-21T14:52:55;16.10;99.90
16485;DHT22;8353;47.856;12.344;2024-02-21T14:55:26;16.10;99.90
16485;DHT22;8353;47.856;12.344;2024-02-21T14:57:56;16.00;99.90
16485;DHT22;8353;47.856;12.344;2024-02-21T15:00:27;15.80;99.90
16485;DHT22;8353;47.856;12.344;2024-02-21T15:02:59;15.80;99.90
16485;DHT22;8353;47.856;12.344;2024-02-21T15:05:30;15.80;99.90
16485;DHT22;8353;47.856;12.344;2024-02-21T15:08:03;15.80;99.90
16485;DHT22;8353;47.856;12.344;2024-02-21T15:10:38;15.80;99.90
16485;DHT22;8353;47.856;12.344;2024-02-21T15:13:08;15.80;99.90
16485;DHT22;8353;47.856;12.344;2024-02-21T15:15:38;15.80;99.90
16485;DHT22;8353;47.856;12.344;2024-02-21T15:18:08;15.80;99.90
16485;DHT22;8353;47.856;12.344;2024-02-21T15:20:39;15.90;99.90
16485;DHT22;8353;47.856;12.344;2024-02-21T15:23:09;15.90;99.90
16485;DHT22;8353;47.856;12.344;2024-02-21T15:25:41;15.90;99.90
16485;DHT22;8353;47.856;12.344;2024-02-21T15:28:12;15.90;99.90
16485;DHT22;8353;47.856;12.344;2024-02-21T15:30:42;15.90;99.90
16485;DHT22;8353;47.856;12.344;2024-02-21T15:33:13;15.80;99.90
16485;DHT22;8353;47.856;12.344;2024-02-21T15:35:43;15.90;99.90
16485;DHT22;8353;47.856;12.344;2024-02-21T15:38:14;15.80;99.90
16485;DHT22;8353;47.856;12.344;2024-02-21T15:40:45;15.80;99.90
16485;DHT22;8353;47.856;12.344;2024-02-21T15:43:16;15.80;99.90
16485;DHT22;8353;47.856;12.344;2024-02-21T15:45:46;15.80;99.90
16485;DHT22;8353;47.856;12.344;2024-02-21T15:48:16;15.70;99.90
16485;DHT22;8353;47.856;12.344;2024-02-21T15:50:46;15.50;99.90
16485;DHT22;8353;47.856;12.344;2024-02-21T15:53:17;15.40;99.90
16485;DHT22;8353;47.856;12.344;2024-02-21T15:55:50;15.30;99.90
16485;DHT22;8353;47.856;12.344;2024-02-21T15:58:20;15.20;99.90
16485;DHT22;8353;47.856;12.344;2024-02-21T16:00:52;15.20;99.90
16485;DHT22;8353;47.856;12.344;2024-02-21T16:03:22;15.10;99.90
16485;DHT22;8353;47.856;12.344;2024-02-21T16:05:52;15.10;99.90
16485;DHT22;8353;47.856;12.344;2024-02-21T16:08:23;15.00;99.90
16485;DHT22;8353;47.856;12.344;2024-02-21T16:10:55;15.00;99.90